Time;durP1;ratioP1;P1;durP2;ratioP2;P2;SDS_P1;SDS_P2;PMS_P1;PMS_P2;Temp;Humidity;BMP_temperature;BMP_pressure;BME280_temperature;BME280_humidity;BME280_pressure;Samples;Min_cycle;Max_cycle;Signal;HPM_P1;HPM_P2
2022/08/26 00:00:45;;;;;;;12.82;5.10;;;;;;;21.01;77.94;101403.13;5060013;28;20043;-77
2022/08/26 00:03:12;;;;;;;13.55;6.00;;;;;;;20.99;78.54;101410.56;5073223;28;20058;-78
2022/08/26 00:05:38;;;;;;;11.23;5.50;;;;;;;20.96;78.88;101406.34;5068114;28;20013;-78
2022/08/26 00:08:04;;;;;;;10.75;5.82;;;;;;;20.92;78.64;101407.72;5072073;28;20040;-77
2022/08/26 00:10:29;;;;;;;12.18;5.63;;;;;;;20.86;78.75;101409.22;5066086;28;20056;-77
2022/08/26 00:12:55;;;;;;;11.00;5.20;;;;;;;20.89;79.05;101413.44;5065055;28;20028;-77
2022/08/26 00:15:22;;;;;;;12.43;5.10;;;;;;;20.88;79.14;101411.75;5060240;28;20016;-77
2022/08/26 00:17:49;;;;;;;9.60;4.75;;;;;;;20.83;79.57;101419.53;5057418;28;20029;-77
2022/08/26 00:20:17;;;;;;;9.68;4.68;;;;;;;20.82;79.44;101425.97;5061809;28;20064;-77
2022/08/26 00:22:43;;;;;;;11.25;5.45;;;;;;;20.82;79.57;101417.88;5070553;28;20025;-78
2022/08/26 00:25:10;;;;;;;9.57;5.03;;;;;;;20.79;79.32;101418.19;5069725;28;20028;-77
2022/08/26 00:27:36;;;;;;;10.55;5.28;;;;;;;20.73;79.84;101414.31;5069785;28;20032;-78
2022/08/26 00:30:05;;;;;;;12.18;5.00;;;;;;;20.76;79.34;101419.38;5070435;28;20033;-77
2022/08/26 00:32:32;;;;;;;12.88;5.15;;;;;;;20.73;79.60;101419.72;5071226;28;20112;-77
2022/08/26 00:34:58;;;;;;;13.77;5.30;;;;;;;20.69;79.84;101426.47;5063944;28;20095;-77
2022/08/26 00:37:23;;;;;;;13.73;6.03;;;;;;;20.68;79.90;101422.06;5065904;28;20052;-77
2022/08/26 00:39:48;;;;;;;11.38;5.28;;;;;;;;;;5070015;28;20047;-77
2022/08/26 00:42:14;;;;;;;12.27;5.13;;;;;;;20.65;79.96;101427.81;5069532;28;20036;-77
2022/08/26 00:44:39;;;;;;;10.73;4.93;;;;;;;20.66;80.06;101422.25;5068708;28;20029;-77
2022/08/26 00:47:20;;;;;;;11.93;4.65;;;;;;;20.66;79.33;101416.00;5071052;28;20295;-78
2022/08/26 00:49:46;;;;;;;11.90;4.68;;;;;;;20.66;79.15;101411.44;5072668;28;20016;-77
2022/08/26 00:52:22;;;;;;;9.98;4.22;;;;;;;20.65;79.54;101417.00;5125353;23;20053;-49
2022/08/26 00:55:03;;;;;;;10.98;4.50;;;;;;;20.71;78.97;101413.66;5016613;28;20080;-50
2022/08/26 00:57:30;;;;;;;14.98;5.40;;;;;;;20.66;79.88;101416.00;5015308;28;20031;-52
2022/08/26 00:59:58;;;;;;;9.65;4.72;;;;;;;20.66;79.76;101424.94;5016012;28;20033;-49
2022/08/26 01:02:23;;;;;;;11.52;4.78;;;;;;;20.63;80.04;101432.53;5021758;28;20085;-49
2022/08/26 01:04:52;;;;;;;15.63;4.50;;;;;;;20.59;79.99;101423.91;5032697;28;20113;-51
2022/08/26 01:07:18;;;;;;;13.57;4.78;;;;;;;20.58;80.76;101424.91;5028524;28;20029;-50
2022/08/26 01:09:44;;;;;;;10.20;4.07;;;;;;;20.58;80.17;101430.31;5021985;28;20467;-49
2022/08/26 01:12:10;;;;;;;9.60;4.72;;;;;;;20.58;80.20;101430.31;5035939;28;20167;-50
2022/08/26 01:14:36;;;;;;;9.90;4.20;;;;;;;20.58;80.18;101440.28;5031661;28;20037;-51
2022/08/26 01:17:04;;;;;;;14.75;4.65;;;;;;;20.55;80.49;101440.59;5036696;28;20033;-51
2022/08/26 01:19:36;;;;;;;12.87;4.33;;;;;;;20.54;80.37;101436.25;5037098;28;20049;-49
2022/08/26 01:22:09;;;;;;;11.75;5.05;;;;;;;20.53;80.54;101427.28;5034862;28;20120;-48
2022/08/26 01:24:36;;;;;;;13.63;4.30;;;;;;;20.53;80.35;101429.97;5035751;28;20471;-51
2022/08/26 01:27:07;;;;;;;14.10;4.70;;;;;;;20.56;80.19;101426.13;5016602;28;20022;-50
2022/08/26 01:29:34;;;;;;;9.48;4.35;;;;;;;20.53;80.38;101419.19;5024140;28;20029;-49
2022/08/26 01:32:01;;;;;;;11.38;4.47;;;;;;;20.51;80.60;101422.06;5023155;28;20037;-49
2022/08/26 01:34:30;;;;;;;13.18;4.35;;;;;;;20.48;80.15;101419.72;5036171;28;20029;-51
2022/08/26 01:37:06;;;;;;;11.00;3.83;;;;;;;20.54;79.42;101420.06;5032255;28;20040;-48
2022/08/26 01:39:34;;;;;;;9.20;4.03;;;;;;;20.45;80.85;101420.06;5036737;28;20022;-49
2022/08/26 01:42:00;;;;;;;10.18;4.32;;;;;;;20.44;80.90;101420.22;5036578;28;20026;-46
2022/08/26 01:44:29;;;;;;;11.07;4.00;;;;;;;20.42;80.64;101417.69;5029170;28;20049;-48
2022/08/26 01:46:57;;;;;;;7.90;3.72;;;;;;;20.40;80.44;101417.00;5033334;28;20116;-48
2022/08/26 01:49:24;;;;;;;10.48;3.70;;;;;;;20.45;80.07;101427.28;5036851;28;20549;-47
2022/08/26 01:51:52;;;;;;;10.15;4.03;;;;;;;20.41;80.40;101421.38;5036808;28;20049;-47
2022/08/26 01:54:17;;;;;;;12.13;4.13;;;;;;;20.42;80.11;101424.94;5026597;28;20037;-48
2022/08/26 01:56:44;;;;;;;10.90;3.88;;;;;;;20.42;80.54;101430.34;5031479;28;20789;-48
2022/08/26 01:59:13;;;;;;;9.73;3.80;;;;;;;20.37;80.58;101427.28;5016909;28;20026;-47
2022/08/26 02:01:39;;;;;;;8.30;3.30;;;;;;;20.34;81.09;101425.78;5021366;28;20017;-49
2022/08/26 02:04:25;;;;;;;10.38;3.60;;;;;;;20.38;79.48;101427.09;5036619;28;20117;-48
2022/08/26 02:06:52;;;;;;;7.57;3.47;;;;;;;20.38;80.43;101426.28;5036016;28;20029;-50
2022/08/26 02:09:19;;;;;;;7.72;3.80;;;;;;;20.37;80.56;101435.38;5036053;28;20021;-52
2022/08/26 02:11:45;;;;;;;7.57;3.20;;;;;;;20.40;80.67;101433.19;5023190;28;20029;-48
2022/08/26 02:14:23;;;;;;;7.30;2.80;;;;;;;20.40;80.25;101438.59;5035571;28;20038;-48
2022/08/26 02:16:51;;;;;;;9.80;3.30;;;;;;;20.39;79.64;101436.06;5035376;28;20026;-52
2022/08/26 02:19:20;;;;;;;8.85;3.30;;;;;;;20.39;79.82;101442.28;5030216;28;20038;-50
2022/08/26 02:21:50;;;;;;;6.55;2.90;;;;;;;20.36;80.19;101444.50;5034124;28;20427;-48
2022/08/26 02:24:19;;;;;;;8.93;3.55;;;;;;;20.34;80.36;101436.56;5035043;28;20053;-49
2022/08/26 02:26:46;;;;;;;7.82;3.08;;;;;;;20.34;80.48;101444.66;5026534;28;20481;-48
2022/08/26 02:29:28;;;;;;;8.68;2.83;;;;;;;20.35;79.85;101454.44;5032408;28;20078;-48
2022/08/26 02:31:56;;;;;;;7.65;2.95;;;;;;;20.32;80.00;101450.22;5034844;28;20057;-48
2022/08/26 02:34:27;;;;;;;7.40;2.92;;;;;;;20.31;80.16;101451.22;5033692;28;20531;-51
2022/08/26 02:36:55;;;;;;;6.90;3.45;;;;;;;20.28;80.66;101456.97;5029073;28;20435;-49
2022/08/26 02:39:21;;;;;;;6.47;3.22;;;;;;;20.31;80.05;101453.06;5022690;28;20040;-49
2022/08/26 02:41:46;;;;;;;12.18;3.03;;;;;;;20.28;80.05;101456.97;5035874;28;20022;-49
2022/08/26 02:44:12;;;;;;;7.70;2.90;;;;;;;20.28;80.05;101453.41;5034564;28;20415;-48
2022/08/26 02:46:37;;;;;;;9.68;3.33;;;;;;;20.27;80.00;101454.44;5035832;28;20334;-48
2022/08/26 02:49:03;;;;;;;7.63;3.08;;;;;;;20.29;79.66;101449.72;5035789;28;20029;-49
2022/08/26 02:51:29;;;;;;;8.95;3.33;;;;;;;20.25;80.35;101451.91;5034917;28;20036;-51
2022/08/26 02:53:55;;;;;;;11.60;3.10;;;;;;;20.20;80.37;101445.31;5028801;28;20080;-49
2022/08/26 02:56:21;;;;;;;7.63;2.90;;;;;;;20.18;80.40;101458.13;5028999;28;20362;-51
2022/08/26 02:58:46;;;;;;;9.27;3.08;;;;;;;20.18;80.37;101447.31;5015471;28;20068;-50
2022/08/26 03:01:29;;;;;;;11.20;3.78;;;;;;;20.13;80.37;101454.06;5018698;28;20100;-51
2022/08/26 03:03:55;;;;;;;13.40;3.40;;;;;;;20.11;80.57;101452.53;5016153;28;20480;-48
2022/08/26 03:06:20;;;;;;;12.07;3.72;;;;;;;20.14;80.90;101457.59;5020002;28;20024;-48
2022/08/26 03:08:46;;;;;;;7.95;3.40;;;;;;;20.08;81.46;101447.47;5034431;28;20591;-50
2022/08/26 03:11:12;;;;;;;11.50;3.58;;;;;;;20.10;80.94;101457.09;5021294;28;20033;-48
2022/08/26 03:13:38;;;;;;;7.85;3.65;;;;;;;20.10;80.74;101451.72;5033876;28;20017;-49
2022/08/26 03:16:04;;;;;;;8.77;3.35;;;;;;;20.12;80.88;101454.25;5032209;28;20033;-48
2022/08/26 03:18:29;;;;;;;10.25;3.40;;;;;;;20.12;80.72;101446.16;5034187;28;20435;-48
2022/08/26 03:20:55;;;;;;;9.32;3.30;;;;;;;20.11;80.39;101445.28;5041125;28;20025;-52
2022/08/26 03:23:20;;;;;;;8.15;3.30;;;;;;;20.07;81.22;101449.34;5037906;28;20031;-51
2022/08/26 03:25:50;;;;;;;8.95;3.30;;;;;;;20.09;80.99;101450.00;5020687;28;20109;-50
2022/08/26 03:28:15;;;;;;;7.53;3.13;;;;;;;20.04;81.56;101449.66;5033929;28;20033;-51
2022/08/26 03:30:41;;;;;;;10.90;4.05;;;;;;;20.04;81.15;101454.22;5017961;28;20037;-49
2022/08/26 03:33:10;;;;;;;7.30;3.30;;;;;;;20.02;81.05;101457.06;5028778;28;20041;-50
2022/08/26 03:35:37;;;;;;;8.63;3.75;;;;;;;20.07;81.30;101456.59;5027659;28;20092;-50
2022/08/26 03:38:03;;;;;;;8.07;3.10;;;;;;;20.05;81.26;101450.50;5029361;28;20029;-52
2022/08/26 03:40:32;;;;;;;9.85;3.08;;;;;;;20.01;81.21;101450.00;5033731;28;20488;-50
2022/08/26 03:42:58;;;;;;;7.82;2.72;;;;;;;19.99;81.85;101451.19;5031092;28;20026;-49
2022/08/26 03:45:23;;;;;;;7.22;3.05;;;;;;;20.00;81.44;101455.53;5033805;28;20100;-50
2022/08/26 03:47:48;;;;;;;6.33;2.67;;;;;;;19.96;81.81;101455.88;5022389;28;20085;-52
2022/08/26 03:50:17;;;;;;;8.43;2.97;;;;;;;19.97;80.75;101459.44;5034274;28;20280;-50
2022/08/26 03:52:42;;;;;;;8.63;2.58;;;;;;;19.98;81.08;101455.69;5033455;28;20057;-50
2022/08/26 03:55:08;;;;;;;11.77;3.40;;;;;;;19.97;82.09;101454.03;5030605;28;20022;-50
2022/08/26 03:57:34;;;;;;;8.18;3.75;;;;;;;19.96;81.60;101458.56;5030099;28;20364;-51
2022/08/26 03:59:59;;;;;;;7.53;2.90;;;;;;;19.93;81.54;101463.44;5034325;28;20049;-49
2022/08/26 04:02:25;;;;;;;7.00;2.58;;;;;;;19.95;81.71;101464.13;5029677;28;20426;-49
2022/08/26 04:04:51;;;;;;;9.07;2.88;;;;;;;19.96;81.07;101463.13;5025195;28;20026;-49
2022/08/26 04:07:16;;;;;;;9.97;2.73;;;;;;;19.96;81.74;101463.94;5028961;28;20052;-48
2022/08/26 04:09:41;;;;;;;8.75;3.05;;;;;;;19.97;81.67;101464.81;5033821;28;20280;-48
2022/08/26 04:12:08;;;;;;;9.27;2.50;;;;;;;19.98;81.06;101461.09;5026198;28;20033;-52
2022/08/26 04:14:34;;;;;;;8.80;2.20;;;;;;;20.00;81.38;101453.72;5033680;28;20041;-51
2022/08/26 04:16:59;;;;;;;9.68;2.50;;;;;;;19.96;81.30;101461.25;5024269;28;20041;-49
2022/08/26 04:19:25;;;;;;;9.25;2.47;;;;;;;19.99;81.03;101459.25;5030840;28;20034;-49
2022/08/26 04:21:51;;;;;;;6.63;2.90;;;;;;;19.95;81.77;101456.91;5029513;28;20051;-50
2022/08/26 04:24:18;;;;;;;8.93;2.72;;;;;;;19.95;81.50;101456.03;5034531;28;20017;-51
2022/08/26 04:26:43;;;;;;;7.18;2.45;;;;;;;19.94;81.75;101459.75;5033373;28;20025;-50
2022/08/26 04:29:16;;;;;;;10.10;2.37;;;;;;;19.91;81.56;101460.06;5029025;28;20037;-51
2022/08/26 04:31:42;;;;;;;10.20;2.60;;;;;;;19.91;81.40;101458.22;5033043;28;20880;-49
2022/08/26 04:34:08;;;;;;;6.50;2.40;;;;;;;19.93;81.26;101458.06;5029030;28;20116;-50
2022/08/26 04:36:34;;;;;;;7.32;2.47;;;;;;;19.93;81.58;101460.75;5030072;28;20113;-52
2022/08/26 04:39:01;;;;;;;10.02;2.53;;;;;;;19.97;81.11;101459.44;5027130;28;20124;-50
2022/08/26 04:41:27;;;;;;;8.27;2.60;;;;;;;19.93;81.51;101463.44;5029714;28;20125;-48
2022/08/26 04:43:52;;;;;;;7.10;2.65;;;;;;;19.90;81.91;101466.47;5033224;28;20472;-49
2022/08/26 04:46:21;;;;;;;7.50;2.30;;;;;;;19.87;82.30;101469.50;5028952;28;20034;-50
2022/08/26 04:48:47;;;;;;;7.50;2.42;;;;;;;19.87;81.53;101469.50;5037604;28;20494;-48
2022/08/26 04:51:13;;;;;;;5.72;2.30;;;;;;;19.84;82.02;101464.44;5037271;28;20021;-48
2022/08/26 04:53:39;;;;;;;8.90;2.60;;;;;;;19.82;82.42;101474.53;5028306;28;20526;-50
2022/08/26 04:56:04;;;;;;;3.75;1.88;;;;;;;19.83;81.59;101462.75;5037165;28;20065;-51
2022/08/26 04:58:30;;;;;;;9.70;2.33;;;;;;;19.84;81.64;101467.13;5031285;28;20479;-51
2022/08/26 05:00:56;;;;;;;6.60;2.30;;;;;;;19.79;82.35;101462.22;5033893;28;20030;-50
2022/08/26 05:03:23;;;;;;;5.85;1.90;;;;;;;19.76;82.66;101468.78;5037038;28;20036;-52
2022/08/26 05:05:49;;;;;;;6.88;2.35;;;;;;;19.77;82.30;101469.63;5023310;28;20545;-51
2022/08/26 05:08:16;;;;;;;9.43;2.45;;;;;;;19.80;82.16;101472.00;5032712;28;20484;-49
2022/08/26 05:10:45;;;;;;;12.00;2.83;;;;;;;19.81;82.26;101480.94;5034010;28;20113;-49
2022/08/26 05:13:12;;;;;;;10.80;2.50;;;;;;;19.84;82.13;101477.91;5034065;28;20042;-49
2022/08/26 05:15:38;;;;;;;9.73;2.33;;;;;;;19.83;82.35;101473.53;5035430;28;20029;-48
2022/08/26 05:18:05;;;;;;;8.35;2.40;;;;;;;19.83;82.39;101476.22;5038049;28;20079;-52
2022/08/26 05:20:31;;;;;;;10.75;3.58;;;;;;;19.82;82.69;101477.22;5037736;28;20021;-50
2022/08/26 05:22:59;;;;;;;16.63;2.60;;;;;;;19.85;82.42;101474.19;5026575;28;20034;-48
2022/08/26 05:25:28;;;;;;;5.47;2.05;;;;;;;19.88;82.38;101476.56;5035120;28;20029;-53
2022/08/26 05:27:53;;;;;;;8.43;2.47;;;;;;;19.87;82.51;101478.44;5037341;28;20048;-48
2022/08/26 05:30:19;;;;;;;7.97;2.28;;;;;;;19.90;82.28;101477.25;5032883;28;20022;-48
2022/08/26 05:32:47;;;;;;;6.20;2.25;;;;;;;19.93;82.41;101479.63;5038348;28;20418;-51
2022/08/26 05:35:13;;;;;;;8.25;2.20;;;;;;;19.96;82.28;101485.53;5037872;28;20071;-51
2022/08/26 05:37:38;;;;;;;8.63;2.20;;;;;;;19.98;82.45;101482.66;5037262;28;20041;-49
2022/08/26 05:40:04;;;;;;;13.80;3.27;;;;;;;19.96;82.77;101479.28;5036887;28;20315;-49
2022/08/26 05:42:30;;;;;;;10.98;2.47;;;;;;;19.97;82.28;101483.69;5036994;28;20307;-50
2022/08/26 05:44:55;;;;;;;10.35;2.67;;;;;;;19.99;81.71;101486.22;5036487;28;20067;-47
2022/08/26 05:47:20;;;;;;;11.82;2.42;;;;;;;20.02;81.42;101489.44;5034991;28;20032;-51
2022/08/26 05:49:46;;;;;;;9.32;2.22;;;;;;;20.02;82.16;101488.56;5035889;28;20030;-50
2022/08/26 05:52:11;;;;;;;8.13;2.28;;;;;;;20.08;81.64;101491.47;5036272;28;20053;-52
2022/08/26 05:54:38;;;;;;;8.07;2.03;;;;;;;20.08;81.45;101498.72;5026598;28;20034;-49
2022/08/26 05:57:03;;;;;;;7.57;2.08;;;;;;;20.08;81.86;101501.41;5039208;28;20083;-49
2022/08/26 05:59:29;;;;;;;10.35;2.33;;;;;;;20.06;82.02;101504.25;5039566;28;20029;-48
2022/08/26 06:01:54;;;;;;;8.80;2.03;;;;;;;20.09;82.10;101500.41;5032004;28;20033;-53
2022/08/26 06:04:19;;;;;;;8.93;2.15;;;;;;;20.13;81.38;101509.84;5031179;28;20115;-51
2022/08/26 06:06:45;;;;;;;10.57;2.40;;;;;;;20.15;81.14;101516.78;5026652;28;20387;-48
2022/08/26 06:09:10;;;;;;;10.73;2.70;;;;;;;20.20;80.82;101519.00;5024989;28;20444;-48
2022/08/26 06:11:36;;;;;;;8.73;1.70;;;;;;;20.20;81.46;101527.09;5035136;28;20032;-48
2022/08/26 06:14:04;;;;;;;6.65;2.03;;;;;;;20.26;80.68;101522.88;5022286;28;20117;-48
2022/08/26 06:16:33;;;;;;;9.43;1.80;;;;;;;20.26;80.79;101520.16;5026567;28;20026;-50
2022/08/26 06:19:00;;;;;;;13.35;2.30;;;;;;;20.31;80.33;101520.53;5025426;28;20083;-49
2022/08/26 06:21:26;;;;;;;12.25;2.10;;;;;;;20.29;80.63;101525.25;5031622;28;20084;-48
2022/08/26 06:26:41;;;;;;;10.30;2.20;;;;;;;20.31;80.04;101534.00;5026484;28;20522;-52
2022/08/26 06:29:07;;;;;;;13.07;2.03;;;;;;;20.31;80.40;101528.63;5027750;28;20029;-49
2022/08/26 06:31:35;;;;;;;8.23;1.90;;;;;;;20.39;79.79;101536.72;5020931;28;20934;-51
2022/08/26 06:34:02;;;;;;;9.55;1.65;;;;;;;20.41;79.70;101534.69;5032830;28;20033;-50
2022/08/26 06:36:29;;;;;;;8.00;1.90;;;;;;;20.41;80.31;101534.69;5024329;28;20045;-50
2022/08/26 06:38:59;;;;;;;12.07;1.90;;;;;;;20.46;79.69;101542.31;5018564;28;20052;-52
2022/08/26 06:41:25;;;;;;;6.13;1.35;;;;;;;20.43;79.78;101537.22;5018199;28;20399;-49
2022/08/26 06:43:51;;;;;;;12.63;1.83;;;;;;;20.48;79.91;101541.16;5020638;28;20030;-49
2022/08/26 06:46:18;;;;;;;17.35;4.35;;;;;;;20.51;79.13;101538.09;5018685;28;20034;-49
2022/08/26 06:48:45;;;;;;;6.75;1.83;;;;;;;20.52;79.82;101544.34;5016404;28;20400;-50
2022/08/26 06:51:20;;;;;;;8.13;1.88;;;;;;;20.56;79.21;101544.84;5019385;28;20138;-50
2022/08/26 06:53:47;;;;;;;5.95;1.55;;;;;;;20.57;79.02;101538.44;5031569;28;20112;-47
2022/08/26 06:56:14;;;;;;;10.13;1.80;;;;;;;20.61;79.46;101545.19;5027884;28;20045;-48
2022/08/26 06:58:41;;;;;;;8.18;2.00;;;;;;;20.63;78.88;101551.31;5033037;28;20044;-50
2022/08/26 07:01:24;;;;;;;8.48;2.00;;;;;;;20.71;78.43;101548.63;5020979;28;20037;-49
2022/08/26 07:03:52;;;;;;;7.07;1.52;;;;;;;20.73;78.83;101551.16;5027487;28;20079;-48
2022/08/26 07:06:18;;;;;;;5.78;1.80;;;;;;;20.76;78.01;101546.25;5026526;28;20033;-48
2022/08/26 07:08:47;;;;;;;7.28;1.58;;;;;;;20.78;77.86;101554.19;5026417;28;20388;-48
2022/08/26 07:11:13;;;;;;;8.80;1.98;;;;;;;20.80;78.00;101546.75;5027473;28;20116;-47
2022/08/26 07:13:38;;;;;;;8.75;1.50;;;;;;;20.81;77.36;101546.59;5033304;28;20131;-47
2022/08/26 07:16:08;;;;;;;8.32;1.83;;;;;;;20.88;77.37;101538.66;5030991;28;20029;-47
2022/08/26 07:18:35;;;;;;;9.32;1.88;;;;;;;20.91;77.06;101545.59;5033447;28;20041;-51
2022/08/26 07:21:02;;;;;;;4.90;1.70;;;;;;;20.97;77.26;101548.47;5027789;28;20034;-50
2022/08/26 07:23:27;;;;;;;7.35;1.65;;;;;;;20.98;77.41;101544.72;5016033;28;20036;-50
2022/08/26 07:25:53;;;;;;;7.22;1.50;;;;;;;21.07;76.82;101549.13;5016161;28;20022;-51
2022/08/26 07:28:18;;;;;;;8.63;1.67;;;;;;;21.14;76.24;101559.28;5016823;28;20075;-49
2022/08/26 07:30:44;;;;;;;5.95;1.38;;;;;;;21.17;76.08;101558.94;5015032;28;20783;-48
2022/08/26 07:33:09;;;;;;;9.73;1.75;;;;;;;21.20;75.54;101551.31;5017102;28;20099;-49
2022/08/26 07:35:34;;;;;;;6.50;1.43;;;;;;;21.28;75.65;101555.84;5015454;28;20034;-48
2022/08/26 07:38:00;;;;;;;6.10;1.85;;;;;;;21.31;76.00;101554.69;5018073;28;20308;-48
2022/08/26 07:40:25;;;;;;;7.15;1.75;;;;;;;21.40;75.31;101556.34;5015686;28;20024;-48
2022/08/26 07:42:51;;;;;;;7.35;1.90;;;;;;;21.48;75.23;101552.81;5014786;28;20045;-49
2022/08/26 07:45:16;;;;;;;6.47;1.57;;;;;;;21.52;74.62;101565.00;5025901;28;20030;-48
2022/08/26 07:47:41;;;;;;;6.25;1.50;;;;;;;21.49;73.93;101565.34;5014722;28;20297;-48
2022/08/26 07:50:07;;;;;;;7.05;1.50;;;;;;;21.56;74.35;101563.63;5017494;28;20476;-51
2022/08/26 07:52:33;;;;;;;8.23;1.40;;;;;;;21.56;73.85;101569.03;5031185;28;20566;-49
2022/08/26 07:55:00;;;;;;;6.03;1.70;;;;;;;21.61;73.68;101569.34;5020179;28;20485;-49
2022/08/26 07:57:27;;;;;;;8.32;1.90;;;;;;;21.70;73.45;101567.47;5033653;28;20032;-48
2022/08/26 07:59:53;;;;;;;6.82;1.45;;;;;;;21.73;72.89;101570.69;5032945;28;20034;-48
2022/08/26 08:02:18;;;;;;;9.90;1.52;;;;;;;21.80;72.71;101574.38;5029408;28;20052;-50
2022/08/26 08:04:43;;;;;;;7.97;2.33;;;;;;;21.88;72.54;101575.34;5021735;28;20091;-47
2022/08/26 08:07:09;;;;;;;7.97;1.23;;;;;;;21.91;72.37;101581.25;5019460;28;20287;-48
2022/08/26 08:09:34;;;;;;;8.57;2.17;;;;;;;22.02;71.77;101576.50;5026439;28;20280;-48
2022/08/26 08:11:59;;;;;;;5.43;1.58;;;;;;;22.06;71.57;101577.81;5033145;28;20037;-48
2022/08/26 08:14:25;;;;;;;5.75;1.70;;;;;;;22.09;71.10;101581.03;5032444;28;20055;-49
2022/08/26 08:16:50;;;;;;;10.65;1.65;;;;;;;22.07;70.08;101579.53;5029778;28;20029;-48
2022/08/26 08:19:15;;;;;;;8.65;1.90;;;;;;;22.11;70.88;101583.56;5032251;28;20375;-47
2022/08/26 08:21:42;;;;;;;10.77;1.90;;;;;;;22.16;70.21;101573.03;5031200;28;20368;-50
2022/08/26 08:24:07;;;;;;;6.57;1.60;;;;;;;22.18;69.29;101581.81;5024435;28;20295;-48
2022/08/26 08:26:34;;;;;;;6.95;1.63;;;;;;;22.19;68.56;101580.81;5031353;28;20013;-50
2022/08/26 08:28:59;;;;;;;5.47;1.50;;;;;;;22.22;68.77;101571.50;5031762;28;20403;-48
2022/08/26 08:31:27;;;;;;;5.88;1.52;;;;;;;22.25;68.20;101576.53;5031213;28;20021;-49
2022/08/26 08:33:53;;;;;;;5.47;1.20;;;;;;;22.22;68.08;101583.16;5028430;28;20029;-49
2022/08/26 08:36:18;;;;;;;4.90;1.35;;;;;;;22.19;68.38;101575.41;5030065;28;20364;-48
2022/08/26 08:38:43;;;;;;;4.82;1.27;;;;;;;22.18;68.02;101582.69;5031734;28;20431;-49
2022/08/26 08:41:40;;;;;;;6.13;1.50;;;;;;;22.32;68.25;101583.81;5031638;28;20033;-49
2022/08/26 08:44:24;;;;;;;6.32;1.30;;;;;;;22.42;68.23;101571.94;5030185;28;20052;-48
2022/08/26 08:46:54;;;;;;;3.85;0.88;;;;;;;22.51;67.44;101581.69;5031465;28;20025;-49
2022/08/26 08:49:21;;;;;;;7.22;1.48;;;;;;;22.58;67.60;101579.09;5030000;28;20033;-49
2022/08/26 08:51:53;;;;;;;7.47;1.52;;;;;;;22.64;66.95;101581.94;5033602;28;20064;-47
2022/08/26 08:54:19;;;;;;;5.70;1.20;;;;;;;22.67;66.74;101573.47;5020961;28;20056;-48
2022/08/26 08:57:03;;;;;;;5.75;1.33;;;;;;;22.64;66.67;101584.66;5031509;28;20034;-48
2022/08/26 08:59:34;;;;;;;6.13;1.35;;;;;;;22.58;66.21;101585.34;5025533;28;20546;-51
2022/08/26 09:02:04;;;;;;;34.10;12.02;;;;;;;22.53;67.31;101593.16;5029764;28;20522;-50
2022/08/26 09:04:47;;;;;;;7.25;1.60;;;;;;;22.57;66.81;101594.50;5027669;28;20025;-52
2022/08/26 09:07:20;;;;;;;7.38;1.45;;;;;;;22.56;66.96;101589.28;5025618;28;20025;-49
2022/08/26 09:09:59;;;;;;;5.75;1.60;;;;;;;22.55;66.90;101593.84;5014627;28;20029;-49
2022/08/26 09:12:28;;;;;;;5.43;1.40;;;;;;;22.47;66.78;101596.63;5016808;28;20427;-48
2022/08/26 09:15:01;;;;;;;4.13;1.20;;;;;;;22.49;66.76;101595.41;5028941;28;20036;-52
2022/08/26 09:17:58;;;;;;;5.72;1.52;;;;;;;22.60;66.99;101588.75;5022117;28;20054;-49
2022/08/26 09:20:41;;;;;;;12.45;2.90;;;;;;;22.73;67.76;101594.41;5020408;28;20029;-48
2022/08/26 09:23:09;;;;;;;5.43;1.33;;;;;;;22.80;66.69;101589.13;5030752;28;20475;-47
2022/08/26 09:25:52;;;;;;;3.92;1.50;;;;;;;22.85;66.39;101602.97;5031993;28;20025;-48
2022/08/26 09:28:20;;;;;;;7.50;1.70;;;;;;;22.85;66.00;101597.53;5030704;28;20021;-47
2022/08/26 09:31:00;;;;;;;8.10;1.73;;;;;;;22.86;66.31;101595.66;5031098;28;20100;-48
2022/08/26 09:33:31;;;;;;;6.57;1.75;;;;;;;22.86;66.67;101598.38;5029892;28;20025;-47
2022/08/26 09:36:31;;;;;;;8.18;2.17;;;;;;;22.92;66.52;101600.38;5032758;28;20053;-49
2022/08/26 09:38:57;;;;;;;7.65;1.75;;;;;;;22.89;65.52;101606.97;5032043;28;20071;-47
2022/08/26 09:41:26;;;;;;;4.80;1.30;;;;;;;22.82;65.97;101607.91;5030876;28;20025;-50
2022/08/26 09:44:11;;;;;;;8.30;1.83;;;;;;;22.90;65.64;101605.97;5033710;28;20072;-50
2022/08/26 09:46:41;;;;;;;9.65;1.60;;;;;;;22.85;66.10;101605.66;5030032;28;20091;-50
2022/08/26 09:49:37;;;;;;;7.90;1.63;;;;;;;22.97;65.85;101608.81;5032910;28;20045;-48
2022/08/26 09:52:12;;;;;;;6.03;1.10;;;;;;;22.89;64.76;101615.09;5031829;28;20080;-48
2022/08/26 09:54:38;;;;;;;5.03;1.40;;;;;;;22.86;64.28;101604.63;5031835;28;20026;-48
2022/08/26 09:57:25;;;;;;;4.00;1.35;;;;;;;22.97;65.13;101610.69;5033950;28;20377;-48
2022/08/26 09:59:50;;;;;;;5.25;1.05;;;;;;;22.86;65.96;101611.94;5032746;28;20395;-47
2022/08/26 10:02:30;;;;;;;7.07;1.42;;;;;;;22.96;64.93;101617.09;5034638;28;20033;-48
2022/08/26 10:04:59;;;;;;;8.27;1.35;;;;;;;22.89;64.12;101622.41;5025277;28;20109;-49
2022/08/26 10:07:44;;;;;;;8.80;1.63;;;;;;;22.94;65.00;101611.88;5030942;28;20034;-46
2022/08/26 10:10:14;;;;;;;6.95;1.40;;;;;;;22.86;64.21;101606.50;5018950;28;20041;-49
2022/08/26 10:13:02;;;;;;;6.32;1.60;;;;;;;22.89;64.44;101611.56;5027470;28;20037;-47
2022/08/26 10:15:40;;;;;;;5.18;1.25;;;;;;;22.87;63.88;101609.03;5030228;28;20117;-47
2022/08/26 10:18:13;;;;;;;6.90;1.20;;;;;;;22.97;65.05;101614.22;5031268;28;20037;-49
2022/08/26 10:20:48;;;;;;;6.00;1.38;;;;;;;23.03;64.72;101604.50;5023701;28;20034;-48
2022/08/26 10:23:21;;;;;;;7.20;1.80;;;;;;;23.06;64.29;101601.44;5023220;28;20076;-47
2022/08/26 10:26:02;;;;;;;4.90;1.50;;;;;;;23.15;64.61;101604.94;5020446;28;20034;-49
2022/08/26 10:28:34;;;;;;;10.98;1.67;;;;;;;23.15;64.10;101599.53;5020417;28;20113;-51
2022/08/26 10:31:11;;;;;;;5.43;1.55;;;;;;;23.12;63.37;101594.50;5022747;28;20057;-47
2022/08/26 10:33:37;;;;;;;5.70;1.30;;;;;;;23.24;62.99;101604.69;5032156;28;20056;-49
2022/08/26 10:36:47;;;;;;;6.07;1.38;;;;;;;23.30;63.63;101602.28;5031766;28;20429;-48
2022/08/26 10:38:55;;;;;;;5.13;1.48;;;;;;;23.27;63.83;101601.63;5021698;28;20149;-48
2022/08/26 10:41:23;;;;;;;10.20;2.22;;;;;;;23.21;63.49;101601.53;5027899;28;20038;-48
2022/08/26 10:43:57;;;;;;;7.25;1.77;;;;;;;23.27;63.11;101598.09;5016555;28;20029;-49
2022/08/26 10:46:32;;;;;;;4.55;1.25;;;;;;;23.19;63.43;101595.44;5029123;28;20039;-52
2022/08/26 10:49:03;;;;;;;27.98;10.27;;;;;;;23.23;64.24;101600.34;5031276;28;20090;-53
2022/08/26 10:51:35;;;;;;;25.75;7.90;;;;;;;23.18;63.30;101596.47;5025851;28;20037;-53
2022/08/26 10:54:08;;;;;;;7.72;1.80;;;;;;;23.21;62.73;101601.53;5033525;28;20121;-52
2022/08/26 10:57:02;;;;;;;6.93;1.60;;;;;;;23.18;63.68;101605.47;5021707;28;20400;-51
2022/08/26 11:03:02;;;;;;;2.70;0.90;;;;;;;23.07;61.75;101608.59;5028305;28;20048;-53
2022/08/26 11:05:28;;;;;;;7.63;1.88;;;;;;;23.03;62.34;101613.50;5019408;28;20519;-51
2022/08/26 11:08:19;;;;;;;6.40;1.38;;;;;;;23.09;63.04;101612.78;5033178;28;20411;-51
2022/08/26 11:10:50;;;;;;;7.13;1.77;;;;;;;23.03;62.84;101605.38;5034849;28;20163;-51
2022/08/26 11:13:15;;;;;;;6.30;1.48;;;;;;;22.95;63.05;101608.16;5026850;28;20046;-50
2022/08/26 11:15:40;;;;;;;4.33;1.10;;;;;;;23.02;64.10;101610.97;5032115;28;20021;-51
2022/08/26 11:18:09;;;;;;;3.80;0.90;;;;;;;23.00;63.21;101605.72;5022515;28;20312;-50
2022/08/26 11:20:34;;;;;;;11.77;1.42;;;;;;;23.02;62.71;101608.25;5030335;28;20030;-53
2022/08/26 11:23:11;;;;;;;4.53;0.90;;;;;;;23.07;63.26;101608.59;5031969;28;20033;-53
2022/08/26 11:26:05;;;;;;;5.07;1.40;;;;;;;23.06;63.15;101605.03;5032736;28;20037;-53
2022/08/26 11:28:38;;;;;;;5.57;1.40;;;;;;;22.91;63.68;101604.97;5030062;28;20045;-51
2022/08/26 11:31:08;;;;;;;9.45;1.60;;;;;;;22.90;62.03;101605.97;5033400;28;20163;-52
2022/08/26 11:33:49;;;;;;;5.72;1.33;;;;;;;22.84;63.96;101600.44;5032963;28;20024;-52
2022/08/26 11:36:34;;;;;;;6.00;1.20;;;;;;;22.90;63.30;101605.13;5033025;28;20479;-49
2022/08/26 11:39:02;;;;;;;4.28;1.30;;;;;;;22.80;63.01;101602.66;5029171;28;20037;-53